sensor_id;sensor_type;location;lat;lon;timestamp;temperature;humidity
20566;DHT22;10441;50.884;12.064;2022-12-18T00:24:20;-9.10;99.90
20566;DHT22;10441;50.884;12.064;2022-12-18T00:26:48;-9.00;99.90
20566;DHT22;10441;50.884;12.064;2022-12-18T00:29:16;-8.90;99.90
20566;DHT22;10441;50.884;12.064;2022-12-18T00:31:44;-9.30;99.90
20566;DHT22;10441;50.884;12.064;2022-12-18T00:34:14;-9.30;99.90
20566;DHT22;10441;50.884;12.064;2022-12-18T00:36:41;-9.30;99.90
20566;DHT22;10441;50.884;12.064;2022-12-18T00:39:10;-9.30;99.90
20566;DHT22;10441;50.884;12.064;2022-12-18T00:41:38;-9.20;99.90
20566;DHT22;10441;50.884;12.064;2022-12-18T00:44:23;-9.10;99.90
20566;DHT22;10441;50.884;12.064;2022-12-18T00:46:51;-9.30;99.90
20566;DHT22;10441;50.884;12.064;2022-12-18T00:49:20;-9.20;99.90
20566;DHT22;10441;50.884;12.064;2022-12-18T00:51:48;-9.30;99.90
20566;DHT22;10441;50.884;12.064;2022-12-18T00:54:15;-9.20;99.90
20566;DHT22;10441;50.884;12.064;2022-12-18T00:56:44;-9.20;99.90
20566;DHT22;10441;50.884;12.064;2022-12-18T00:59:11;-9.00;99.90
20566;DHT22;10441;50.884;12.064;2022-12-18T01:01:39;-9.10;99.90
20566;DHT22;10441;50.884;12.064;2022-12-18T01:04:07;-9.20;99.90
20566;DHT22;10441;50.884;12.064;2022-12-18T01:06:36;-9.30;99.90
20566;DHT22;10441;50.884;12.064;2022-12-18T01:09:04;-9.30;99.90
20566;DHT22;10441;50.884;12.064;2022-12-18T01:11:32;-9.40;99.90
20566;DHT22;10441;50.884;12.064;2022-12-18T01:14:05;-9.40;99.90
20566;DHT22;10441;50.884;12.064;2022-12-18T01:16:33;-9.40;99.90
20566;DHT22;10441;50.884;12.064;2022-12-18T01:19:01;-9.50;99.90
20566;DHT22;10441;50.884;12.064;2022-12-18T01:21:29;-9.40;99.90
20566;DHT22;10441;50.884;12.064;2022-12-18T02:27:39;-9.30;99.90
20566;DHT22;10441;50.884;12.064;2022-12-18T02:30:09;-9.40;99.90
20566;DHT22;10441;50.884;12.064;2022-12-18T02:32:37;-9.30;99.90
20566;DHT22;10441;50.884;12.064;2022-12-18T02:35:06;-9.40;99.90
20566;DHT22;10441;50.884;12.064;2022-12-18T02:37:33;-9.60;99.90
20566;DHT22;10441;50.884;12.064;2022-12-18T02:40:03;-9.50;99.90
20566;DHT22;10441;50.884;12.064;2022-12-18T02:42:31;-9.90;99.90
20566;DHT22;10441;50.884;12.064;2022-12-18T02:45:00;-9.70;99.90
20566;DHT22;10441;50.884;12.064;2022-12-18T02:47:29;-10.00;99.90
20566;DHT22;10441;50.884;12.064;2022-12-18T02:49:58;-10.00;99.90
20566;DHT22;10441;50.884;12.064;2022-12-18T02:52:29;-9.50;99.90
20566;DHT22;10441;50.884;12.064;2022-12-18T02:55:00;-9.60;99.90
20566;DHT22;10441;50.884;12.064;2022-12-18T02:57:33;-9.70;99.90
20566;DHT22;10441;50.884;12.064;2022-12-18T03:00:04;-9.90;99.90
20566;DHT22;10441;50.884;12.064;2022-12-18T03:02:33;-9.90;99.90
20566;DHT22;10441;50.884;12.064;2022-12-18T03:05:04;-9.60;99.90
20566;DHT22;10441;50.884;12.064;2022-12-18T03:07:37;-10.00;99.90
20566;DHT22;10441;50.884;12.064;2022-12-18T03:10:06;-9.90;99.90
20566;DHT22;10441;50.884;12.064;2022-12-18T03:12:37;-9.90;99.90
20566;DHT22;10441;50.884;12.064;2022-12-18T03:15:10;-9.80;99.90
20566;DHT22;10441;50.884;12.064;2022-12-18T03:17:42;-10.00;99.90
20566;DHT22;10441;50.884;12.064;2022-12-18T03:20:13;-10.00;99.90
20566;DHT22;10441;50.884;12.064;2022-12-18T06:25:51;-10.50;99.90
20566;DHT22;10441;50.884;12.064;2022-12-18T06:28:19;-10.50;99.90
20566;DHT22;10441;50.884;12.064;2022-12-18T06:30:46;-10.40;99.90
20566;DHT22;10441;50.884;12.064;2022-12-18T06:33:13;-10.30;99.90
20566;DHT22;10441;50.884;12.064;2022-12-18T06:35:40;-10.30;99.90
20566;DHT22;10441;50.884;12.064;2022-12-18T06:38:08;-10.40;99.90
20566;DHT22;10441;50.884;12.064;2022-12-18T06:40:36;-10.30;99.90
20566;DHT22;10441;50.884;12.064;2022-12-18T06:43:04;-9.80;99.90
20566;DHT22;10441;50.884;12.064;2022-12-18T06:45:31;-10.30;99.90
20566;DHT22;10441;50.884;12.064;2022-12-18T06:47:58;-10.10;99.90
20566;DHT22;10441;50.884;12.064;2022-12-18T06:50:25;-10.40;99.90
20566;DHT22;10441;50.884;12.064;2022-12-18T06:52:52;-10.60;99.90
20566;DHT22;10441;50.884;12.064;2022-12-18T06:55:19;-10.50;99.90
20566;DHT22;10441;50.884;12.064;2022-12-18T06:57:45;-10.50;99.90
20566;DHT22;10441;50.884;12.064;2022-12-18T07:00:14;-10.50;99.90
20566;DHT22;10441;50.884;12.064;2022-12-18T07:02:41;-10.40;99.90
20566;DHT22;10441;50.884;12.064;2022-12-18T07:05:08;-10.50;99.90
20566;DHT22;10441;50.884;12.064;2022-12-18T07:07:35;-10.50;99.90
20566;DHT22;10441;50.884;12.064;2022-12-18T07:10:01;-10.40;99.90
20566;DHT22;10441;50.884;12.064;2022-12-18T07:12:28;-10.50;99.90
20566;DHT22;10441;50.884;12.064;2022-12-18T07:14:55;-10.70;99.90
20566;DHT22;10441;50.884;12.064;2022-12-18T07:17:23;-10.90;99.90
20566;DHT22;10441;50.884;12.064;2022-12-18T07:19:50;-10.90;99.90
20566;DHT22;10441;50.884;12.064;2022-12-18T07:22:17;-11.00;99.90
20566;DHT22;10441;50.884;12.064;2022-12-18T07:24:44;-10.80;99.90
20566;DHT22;10441;50.884;12.064;2022-12-18T07:27:10;-10.80;99.90
20566;DHT22;10441;50.884;12.064;2022-12-18T07:29:39;-10.00;99.90
20566;DHT22;10441;50.884;12.064;2022-12-18T07:32:06;-10.20;99.90
20566;DHT22;10441;50.884;12.064;2022-12-18T07:34:36;-10.30;99.90
20566;DHT22;10441;50.884;12.064;2022-12-18T07:37:03;-10.20;99.90
20566;DHT22;10441;50.884;12.064;2022-12-18T07:39:29;-9.90;99.90
20566;DHT22;10441;50.884;12.064;2022-12-18T07:41:56;-9.70;99.90
20566;DHT22;10441;50.884;12.064;2022-12-18T07:44:40;-9.60;99.90
20566;DHT22;10441;50.884;12.064;2022-12-18T07:47:07;-9.20;99.90
20566;DHT22;10441;50.884;12.064;2022-12-18T07:49:35;-8.30;99.90
20566;DHT22;10441;50.884;12.064;2022-12-18T07:52:02;-8.10;99.90
20566;DHT22;10441;50.884;12.064;2022-12-18T07:54:29;-7.60;99.90
20566;DHT22;10441;50.884;12.064;2022-12-18T07:56:56;-7.90;99.90
20566;DHT22;10441;50.884;12.064;2022-12-18T07:59:23;-7.00;99.90
20566;DHT22;10441;50.884;12.064;2022-12-18T08:01:50;-7.00;99.90
20566;DHT22;10441;50.884;12.064;2022-12-18T08:04:16;-6.50;99.90
20566;DHT22;10441;50.884;12.064;2022-12-18T08:06:45;-6.50;99.90
20566;DHT22;10441;50.884;12.064;2022-12-18T08:09:11;-6.00;99.90
20566;DHT22;10441;50.884;12.064;2022-12-18T08:11:38;-5.70;99.90
20566;DHT22;10441;50.884;12.064;2022-12-18T08:14:05;-5.20;99.90
20566;DHT22;10441;50.884;12.064;2022-12-18T08:16:32;-4.20;99.90
20566;DHT22;10441;50.884;12.064;2022-12-18T08:18:59;-3.90;99.90
20566;DHT22;10441;50.884;12.064;2022-12-18T08:21:26;-4.70;99.90
20566;DHT22;10441;50.884;12.064;2022-12-18T09:24:51;-2.90;99.90
20566;DHT22;10441;50.884;12.064;2022-12-18T09:27:19;-2.00;99.90
20566;DHT22;10441;50.884;12.064;2022-12-18T09:29:46;-2.70;99.90
20566;DHT22;10441;50.884;12.064;2022-12-18T09:32:13;-2.20;99.90
20566;DHT22;10441;50.884;12.064;2022-12-18T09:34:39;-1.70;99.90
20566;DHT22;10441;50.884;12.064;2022-12-18T09:37:06;-1.30;99.90
20566;DHT22;10441;50.884;12.064;2022-12-18T09:39:37;-0.50;99.90
20566;DHT22;10441;50.884;12.064;2022-12-18T09:42:06;0.80;99.90
20566;DHT22;10441;50.884;12.064;2022-12-18T09:44:38;0.80;99.90
20566;DHT22;10441;50.884;12.064;2022-12-18T09:47:08;0.30;99.90
20566;DHT22;10441;50.884;12.064;2022-12-18T09:49:38;0.10;99.90
20566;DHT22;10441;50.884;12.064;2022-12-18T09:52:09;-0.10;99.90
20566;DHT22;10441;50.884;12.064;2022-12-18T09:54:44;0.00;99.90
20566;DHT22;10441;50.884;12.064;2022-12-18T09:57:33;0.40;99.90
20566;DHT22;10441;50.884;12.064;2022-12-18T10:00:09;0.80;99.90
20566;DHT22;10441;50.884;12.064;2022-12-18T10:02:39;-0.20;99.90
20566;DHT22;10441;50.884;12.064;2022-12-18T10:05:11;-0.40;99.90
20566;DHT22;10441;50.884;12.064;2022-12-18T10:07:51;-0.80;99.90
20566;DHT22;10441;50.884;12.064;2022-12-18T10:10:32;-0.20;99.90
20566;DHT22;10441;50.884;12.064;2022-12-18T10:13:08;-0.70;99.90
20566;DHT22;10441;50.884;12.064;2022-12-18T10:15:36;-1.00;99.90
20566;DHT22;10441;50.884;12.064;2022-12-18T10:18:14;-0.50;99.90
20566;DHT22;10441;50.884;12.064;2022-12-18T10:20:44;-0.40;99.90
20566;DHT22;10441;50.884;12.064;2022-12-18T10:23:14;-0.50;99.90
20566;DHT22;10441;50.884;12.064;2022-12-18T10:25:48;-0.20;99.90
20566;DHT22;10441;50.884;12.064;2022-12-18T10:28:20;-0.50;99.90
20566;DHT22;10441;50.884;12.064;2022-12-18T10:30:48;-0.80;99.90
20566;DHT22;10441;50.884;12.064;2022-12-18T10:33:16;-0.60;99.90
20566;DHT22;10441;50.884;12.064;2022-12-18T10:35:43;-1.00;99.90
20566;DHT22;10441;50.884;12.064;2022-12-18T10:38:21;-0.80;99.90
20566;DHT22;10441;50.884;12.064;2022-12-18T10:40:51;-0.90;99.90
20566;DHT22;10441;50.884;12.064;2022-12-18T15:47:21;-3.40;99.90
20566;DHT22;10441;50.884;12.064;2022-12-18T15:49:48;-3.40;99.90
20566;DHT22;10441;50.884;12.064;2022-12-18T15:52:15;-3.60;99.90
20566;DHT22;10441;50.884;12.064;2022-12-18T15:54:51;-3.60;99.90
20566;DHT22;10441;50.884;12.064;2022-12-18T15:57:35;-3.50;99.90
20566;DHT22;10441;50.884;12.064;2022-12-18T16:00:03;-3.70;99.90
20566;DHT22;10441;50.884;12.064;2022-12-18T16:02:32;-4.00;99.90
20566;DHT22;10441;50.884;12.064;2022-12-18T16:04:58;-4.10;99.90
20566;DHT22;10441;50.884;12.064;2022-12-18T16:07:25;-3.80;99.90
20566;DHT22;10441;50.884;12.064;2022-12-18T16:09:52;-3.80;99.90
20566;DHT22;10441;50.884;12.064;2022-12-18T16:12:20;-3.90;99.90
20566;DHT22;10441;50.884;12.064;2022-12-18T16:14:48;-3.90;99.90
20566;DHT22;10441;50.884;12.064;2022-12-18T16:17:15;-3.90;99.90
20566;DHT22;10441;50.884;12.064;2022-12-18T16:19:46;-4.00;99.90
20566;DHT22;10441;50.884;12.064;2022-12-18T16:22:17;-4.00;99.90
20566;DHT22;10441;50.884;12.064;2022-12-18T16:24:44;-4.10;99.90
20566;DHT22;10441;50.884;12.064;2022-12-18T16:27:11;-4.10;99.90
20566;DHT22;10441;50.884;12.064;2022-12-18T16:29:38;-4.00;99.90
20566;DHT22;10441;50.884;12.064;2022-12-18T16:32:04;-4.00;99.90
20566;DHT22;10441;50.884;12.064;2022-12-18T16:34:32;-3.80;99.90
20566;DHT22;10441;50.884;12.064;2022-12-18T16:37:01;-4.00;99.90
20566;DHT22;10441;50.884;12.064;2022-12-18T16:39:28;-4.00;99.90
20566;DHT22;10441;50.884;12.064;2022-12-18T16:41:55;-4.00;99.90
20566;DHT22;10441;50.884;12.064;2022-12-18T16:44:22;-4.00;99.90
20566;DHT22;10441;50.884;12.064;2022-12-18T16:46:48;-3.80;99.90
20566;DHT22;10441;50.884;12.064;2022-12-18T16:49:16;-4.10;99.90
20566;DHT22;10441;50.884;12.064;2022-12-18T16:51:43;-4.10;99.90
20566;DHT22;10441;50.884;12.064;2022-12-18T16:54:12;-4.10;99.90
20566;DHT22;10441;50.884;12.064;2022-12-18T16:56:40;-4.10;99.90
20566;DHT22;10441;50.884;12.064;2022-12-18T16:59:09;-4.10;99.90
20566;DHT22;10441;50.884;12.064;2022-12-18T17:01:36;-3.90;99.90
20566;DHT22;10441;50.884;12.064;2022-12-18T17:04:04;-3.90;99.90
20566;DHT22;10441;50.884;12.064;2022-12-18T17:06:33;-3.90;99.90
20566;DHT22;10441;50.884;12.064;2022-12-18T17:09:01;-3.90;99.90
20566;DHT22;10441;50.884;12.064;2022-12-18T17:11:30;-3.70;99.90
20566;DHT22;10441;50.884;12.064;2022-12-18T17:13:57;-3.50;99.90
20566;DHT22;10441;50.884;12.064;2022-12-18T17:16:24;-3.50;99.90
20566;DHT22;10441;50.884;12.064;2022-12-18T17:18:52;-3.40;99.90
20566;DHT22;10441;50.884;12.064;2022-12-18T19:15:20;-2.20;99.90
20566;DHT22;10441;50.884;12.064;2022-12-18T19:17:47;-2.20;99.90
20566;DHT22;10441;50.884;12.064;2022-12-18T19:20:15;-2.10;99.90
20566;DHT22;10441;50.884;12.064;2022-12-18T19:22:43;-2.20;99.90
20566;DHT22;10441;50.884;12.064;2022-12-18T19:25:09;-2.50;99.90
20566;DHT22;10441;50.884;12.064;2022-12-18T19:27:36;-2.30;99.90
20566;DHT22;10441;50.884;12.064;2022-12-18T19:30:04;-2.20;99.90
20566;DHT22;10441;50.884;12.064;2022-12-18T19:32:33;-2.10;99.90
20566;DHT22;10441;50.884;12.064;2022-12-18T19:35:00;-2.10;99.90
20566;DHT22;10441;50.884;12.064;2022-12-18T19:37:27;-2.10;99.90
20566;DHT22;10441;50.884;12.064;2022-12-18T19:39:54;-2.10;99.90
20566;DHT22;10441;50.884;12.064;2022-12-18T19:42:20;-2.10;99.90
20566;DHT22;10441;50.884;12.064;2022-12-18T19:44:47;-2.10;99.90
20566;DHT22;10441;50.884;12.064;2022-12-18T19:47:14;-2.10;99.90
20566;DHT22;10441;50.884;12.064;2022-12-18T19:49:42;-2.10;99.90
20566;DHT22;10441;50.884;12.064;2022-12-18T19:52:09;-2.10;99.90
20566;DHT22;10441;50.884;12.064;2022-12-18T19:54:36;-2.00;99.90
20566;DHT22;10441;50.884;12.064;2022-12-18T19:57:03;-2.00;99.90
20566;DHT22;10441;50.884;12.064;2022-12-18T19:59:32;-1.90;99.90
20566;DHT22;10441;50.884;12.064;2022-12-18T20:01:59;-1.80;99.90
20566;DHT22;10441;50.884;12.064;2022-12-18T20:04:25;-1.90;99.90
20566;DHT22;10441;50.884;12.064;2022-12-18T20:06:53;-1.90;99.90
20566;DHT22;10441;50.884;12.064;2022-12-18T20:09:21;-1.90;99.90
20566;DHT22;10441;50.884;12.064;2022-12-18T20:11:47;-1.90;99.90
20566;DHT22;10441;50.884;12.064;2022-12-18T20:14:15;-1.90;99.90
20566;DHT22;10441;50.884;12.064;2022-12-18T21:18:03;-0.80;99.90
20566;DHT22;10441;50.884;12.064;2022-12-18T21:20:44;-0.90;99.90
20566;DHT22;10441;50.884;12.064;2022-12-18T21:23:14;-0.80;99.90
20566;DHT22;10441;50.884;12.064;2022-12-18T21:25:44;-0.90;99.90
20566;DHT22;10441;50.884;12.064;2022-12-18T21:28:11;-0.80;99.90
20566;DHT22;10441;50.884;12.064;2022-12-18T21:30:38;-0.90;99.90
20566;DHT22;10441;50.884;12.064;2022-12-18T21:33:11;-0.90;99.90
20566;DHT22;10441;50.884;12.064;2022-12-18T21:35:37;-0.90;99.90
20566;DHT22;10441;50.884;12.064;2022-12-18T21:38:04;-0.90;99.90
20566;DHT22;10441;50.884;12.064;2022-12-18T21:40:31;-0.90;99.90
20566;DHT22;10441;50.884;12.064;2022-12-18T21:42:58;-1.00;99.90
20566;DHT22;10441;50.884;12.064;2022-12-18T21:45:42;-0.90;99.90
20566;DHT22;10441;50.884;12.064;2022-12-18T21:48:10;-0.90;99.90
20566;DHT22;10441;50.884;12.064;2022-12-18T21:50:37;-0.90;99.90
20566;DHT22;10441;50.884;12.064;2022-12-18T21:53:04;-0.80;99.90
20566;DHT22;10441;50.884;12.064;2022-12-18T21:55:31;-0.90;99.90
20566;DHT22;10441;50.884;12.064;2022-12-18T21:57:58;-0.90;99.90
20566;DHT22;10441;50.884;12.064;2022-12-18T22:00:25;-1.00;99.90
20566;DHT22;10441;50.884;12.064;2022-12-18T22:02:51;-1.00;99.90
20566;DHT22;10441;50.884;12.064;2022-12-18T22:05:19;-1.00;99.90
20566;DHT22;10441;50.884;12.064;2022-12-18T22:07:47;-1.00;99.90
20566;DHT22;10441;50.884;12.064;2022-12-18T22:10:13;-1.00;99.90
20566;DHT22;10441;50.884;12.064;2022-12-18T22:12:40;-1.10;99.90
20566;DHT22;10441;50.884;12.064;2022-12-18T22:15:07;-1.00;99.90
20566;DHT22;10441;50.884;12.064;2022-12-18T22:17:34;-1.00;99.90
20566;DHT22;10441;50.884;12.064;2022-12-18T22:20:02;-0.90;99.90
20566;DHT22;10441;50.884;12.064;2022-12-18T22:22:31;-1.00;99.90
20566;DHT22;10441;50.884;12.064;2022-12-18T22:24:59;-1.00;99.90
20566;DHT22;10441;50.884;12.064;2022-12-18T22:27:27;-1.00;99.90
20566;DHT22;10441;50.884;12.064;2022-12-18T22:29:54;-0.90;99.90
20566;DHT22;10441;50.884;12.064;2022-12-18T22:32:29;-0.90;99.90
20566;DHT22;10441;50.884;12.064;2022-12-18T22:34:55;-0.80;99.90
20566;DHT22;10441;50.884;12.064;2022-12-18T22:37:22;-0.90;99.90
20566;DHT22;10441;50.884;12.064;2022-12-18T22:39:50;-0.90;99.90
20566;DHT22;10441;50.884;12.064;2022-12-18T22:42:17;-0.90;99.90
20566;DHT22;10441;50.884;12.064;2022-12-18T22:44:44;-0.80;99.90
20566;DHT22;10441;50.884;12.064;2022-12-18T22:47:14;-0.70;99.90
20566;DHT22;10441;50.884;12.064;2022-12-18T22:49:40;-0.70;99.90
20566;DHT22;10441;50.884;12.064;2022-12-18T22:52:07;-0.70;99.90
20566;DHT22;10441;50.884;12.064;2022-12-18T22:54:35;-0.70;99.90
20566;DHT22;10441;50.884;12.064;2022-12-18T22:57:03;-0.80;99.90
20566;DHT22;10441;50.884;12.064;2022-12-18T22:59:30;-0.80;99.90
20566;DHT22;10441;50.884;12.064;2022-12-18T23:01:57;-0.80;99.90
20566;DHT22;10441;50.884;12.064;2022-12-18T23:04:24;-0.90;99.90
20566;DHT22;10441;50.884;12.064;2022-12-18T23:06:52;-0.90;99.90
20566;DHT22;10441;50.884;12.064;2022-12-18T23:09:19;-0.90;99.90
20566;DHT22;10441;50.884;12.064;2022-12-18T23:11:46;-0.80;99.90
20566;DHT22;10441;50.884;12.064;2022-12-18T23:14:14;-0.90;99.90
20566;DHT22;10441;50.884;12.064;2022-12-18T23:16:41;-0.90;99.90
20566;DHT22;10441;50.884;12.064;2022-12-18T23:19:08;-0.80;99.90
20566;DHT22;10441;50.884;12.064;2022-12-18T23:21:35;-0.80;99.90
20566;DHT22;10441;50.884;12.064;2022-12-18T23:24:02;-0.80;99.90
20566;DHT22;10441;50.884;12.064;2022-12-18T23:26:30;-0.80;99.90
20566;DHT22;10441;50.884;12.064;2022-12-18T23:28:59;-0.80;99.90
20566;DHT22;10441;50.884;12.064;2022-12-18T23:31:29;-0.80;99.90
20566;DHT22;10441;50.884;12.064;2022-12-18T23:33:58;-0.90;99.90
20566;DHT22;10441;50.884;12.064;2022-12-18T23:36:25;-0.90;99.90
20566;DHT22;10441;50.884;12.064;2022-12-18T23:38:54;-0.90;99.90
20566;DHT22;10441;50.884;12.064;2022-12-18T23:41:23;-1.00;99.90
20566;DHT22;10441;50.884;12.064;2022-12-18T23:43:50;-1.00;99.90
20566;DHT22;10441;50.884;12.064;2022-12-18T23:46:19;-1.10;99.90
20566;DHT22;10441;50.884;12.064;2022-12-18T23:48:48;-1.10;99.90
20566;DHT22;10441;50.884;12.064;2022-12-18T23:51:17;-1.10;99.90
20566;DHT22;10441;50.884;12.064;2022-12-18T23:53:49;-1.20;99.90
20566;DHT22;10441;50.884;12.064;2022-12-18T23:56:17;-1.10;99.90
20566;DHT22;10441;50.884;12.064;2022-12-18T23:58:45;-1.20;99.90
